Time;durP1;ratioP1;P1;durP2;ratioP2;P2;SDS_P1;SDS_P2;PMS_P1;PMS_P2;Temp;Humidity;BMP_temperature;BMP_pressure;BME280_temperature;BME280_humidity;BME280_pressure;Samples;Min_cycle;Max_cycle;Signal;HPM_P1;HPM_P2
2021/06/24 00:00:14;;;;;;;8.55;4.50;;;;;;;24.02;45.97;101828.03;5060899;28;20036;-59
2021/06/24 00:02:39;;;;;;;7.80;4.28;;;;;;;24.00;45.69;101813.69;5060310;28;20029;-60
2021/06/24 00:05:06;;;;;;;10.63;4.82;;;;;;;24.02;46.01;101808.00;5042292;28;20035;-60
2021/06/24 00:07:31;;;;;;;8.73;4.60;;;;;;;23.99;46.18;101805.66;5059402;28;20082;-59
2021/06/24 00:09:57;;;;;;;7.65;4.18;;;;;;;23.99;46.37;101811.13;5060159;28;20481;-59
2021/06/24 00:12:22;;;;;;;12.02;4.63;;;;;;;23.98;45.62;101823.13;5060977;28;20033;-59
2021/06/24 00:14:48;;;;;;;7.75;4.47;;;;;;;23.97;45.97;101818.69;5060207;28;20033;-59
2021/06/24 00:17:13;;;;;;;6.50;4.00;;;;;;;23.97;45.93;101818.69;5060279;28;20470;-59
2021/06/24 00:19:38;;;;;;;14.30;4.53;;;;;;;23.94;45.98;101814.47;5059087;28;20029;-59
2021/06/24 00:22:04;;;;;;;6.63;4.68;;;;;;;23.92;45.90;101799.28;5059667;28;20063;-60
2021/06/24 00:24:29;;;;;;;11.38;4.72;;;;;;;23.88;46.27;101787.00;5060451;28;20456;-60
2021/06/24 00:26:55;;;;;;;23.15;5.47;;;;;;;23.91;46.57;101803.03;5060167;28;20033;-60
2021/06/24 00:29:20;;;;;;;9.50;4.22;;;;;;;23.89;45.72;101800.50;5059935;28;20111;-59
2021/06/24 00:31:45;;;;;;;12.13;4.93;;;;;;;23.87;45.70;101807.22;5059959;28;20051;-60
2021/06/24 00:34:11;;;;;;;9.43;4.45;;;;;;;23.84;46.71;101796.66;5058608;28;20503;-60
2021/06/24 00:36:36;;;;;;;12.45;4.30;;;;;;;23.81;45.79;101802.50;5042276;28;20029;-60
2021/06/24 00:39:02;;;;;;;6.57;4.78;;;;;;;23.78;46.44;101810.03;5059545;28;20486;-60
2021/06/24 00:41:28;;;;;;;9.13;4.35;;;;;;;23.77;46.74;101804.78;5041834;28;20036;-59
2021/06/24 00:43:54;;;;;;;6.45;4.35;;;;;;;23.74;46.86;101803.25;5058448;28;20051;-59
2021/06/24 00:46:19;;;;;;;6.35;3.92;;;;;;;23.75;46.17;101804.97;5041876;28;20029;-59
2021/06/24 00:48:44;;;;;;;7.57;4.93;;;;;;;23.73;45.94;101807.03;5059894;28;20083;-59
2021/06/24 00:51:10;;;;;;;13.10;5.45;;;;;;;23.71;46.87;101798.16;5058687;28;20059;-60
2021/06/24 00:53:35;;;;;;;12.45;5.22;;;;;;;23.70;46.06;101796.47;5055551;28;20033;-59
2021/06/24 00:56:03;;;;;;;8.82;4.72;;;;;;;23.68;46.86;101801.28;5056647;28;20033;-59
2021/06/24 00:58:29;;;;;;;8.20;3.70;;;;;;;23.66;46.81;101797.03;5056670;28;20029;-59
2021/06/24 01:00:56;;;;;;;7.40;4.53;;;;;;;23.64;45.96;101794.53;5056628;28;20041;-60
2021/06/24 01:03:22;;;;;;;6.60;3.88;;;;;;;23.59;46.06;101786.00;5038478;28;20366;-60
2021/06/24 01:05:48;;;;;;;11.20;4.75;;;;;;;23.59;46.43;101794.22;5038489;28;20024;-60
2021/06/24 01:08:15;;;;;;;6.28;4.32;;;;;;;23.58;45.85;101800.75;5056531;28;20033;-60
2021/06/24 01:10:45;;;;;;;8.70;4.55;;;;;;;23.58;45.87;101808.09;5056544;28;20083;-59
2021/06/24 01:13:11;;;;;;;10.25;3.85;;;;;;;23.52;46.35;101797.91;5055195;28;20108;-59
2021/06/24 01:15:37;;;;;;;14.60;4.65;;;;;;;23.54;47.04;101791.22;5055187;28;20029;-59
2021/06/24 01:18:03;;;;;;;8.70;4.10;;;;;;;23.52;46.81;101793.28;5056392;28;20115;-62
2021/06/24 01:20:32;;;;;;;6.68;4.35;;;;;;;23.55;46.93;101803.84;5056109;28;20381;-60
2021/06/24 01:22:59;;;;;;;8.23;3.53;;;;;;;23.54;46.67;101802.16;5056234;28;20035;-59
2021/06/24 01:25:24;;;;;;;9.98;4.95;;;;;;;23.55;47.08;101809.34;5056018;28;20412;-60
2021/06/24 01:28:08;;;;;;;10.70;4.55;;;;;;;23.55;46.23;101808.47;5038232;28;20179;-60
2021/06/24 01:30:35;;;;;;;11.43;4.90;;;;;;;23.54;46.42;101806.75;5056074;28;20394;-60
2021/06/24 01:33:03;;;;;;;12.43;3.95;;;;;;;23.49;46.46;101793.66;5056005;28;20024;-59
2021/06/24 01:35:31;;;;;;;10.75;4.88;;;;;;;23.52;46.55;101790.56;5038711;28;20053;-60
2021/06/24 01:37:57;;;;;;;5.30;3.90;;;;;;;23.53;46.90;101784.06;5037991;28;20028;-59
2021/06/24 01:40:23;;;;;;;8.25;3.90;;;;;;;23.55;46.42;101790.19;5037809;28;20032;-59
2021/06/24 01:42:49;;;;;;;8.50;4.07;;;;;;;23.54;47.28;101783.00;5038365;28;20354;-59
2021/06/24 01:45:14;;;;;;;8.80;4.80;;;;;;;23.53;46.29;101785.94;5056276;28;20083;-60
2021/06/24 01:47:40;;;;;;;6.35;3.50;;;;;;;23.54;46.25;101790.34;5055644;28;20040;-59
2021/06/24 01:50:10;;;;;;;9.55;4.28;;;;;;;23.53;47.28;101785.94;5038065;28;20091;-59
2021/06/24 01:52:36;;;;;;;5.80;3.65;;;;;;;23.54;46.68;101790.34;5055560;28;20032;-59
2021/06/24 01:55:02;;;;;;;11.27;4.25;;;;;;;23.53;46.39;101781.31;5055781;28;20028;-59
2021/06/24 01:57:28;;;;;;;7.25;4.25;;;;;;;23.53;47.22;101775.84;5054352;28;20029;-60
2021/06/24 01:59:53;;;;;;;5.03;3.85;;;;;;;23.51;47.49;101779.78;5055430;28;20044;-59
2021/06/24 02:02:19;;;;;;;6.60;4.03;;;;;;;23.51;46.52;101779.78;5055358;28;20120;-59
2021/06/24 02:04:44;;;;;;;7.93;3.88;;;;;;;23.51;46.51;101780.66;5055021;28;20044;-60
2021/06/24 02:07:10;;;;;;;7.75;3.60;;;;;;;23.48;47.23;101777.47;5055108;28;20063;-61
2021/06/24 02:09:35;;;;;;;14.45;4.03;;;;;;;23.49;46.46;101782.72;5055261;28;20201;-61
2021/06/24 02:12:01;;;;;;;7.65;3.85;;;;;;;23.49;46.51;101777.25;5055070;28;20032;-62
2021/06/24 02:14:27;;;;;;;7.90;3.67;;;;;;;23.48;47.29;101775.56;5055449;28;20029;-58
2021/06/24 02:16:53;;;;;;;9.60;4.20;;;;;;;23.47;46.38;101771.13;5054781;28;20547;-62
2021/06/24 02:19:18;;;;;;;7.45;4.40;;;;;;;23.47;47.51;101768.41;5055104;28;20029;-61
2021/06/24 02:21:44;;;;;;;7.53;4.55;;;;;;;23.44;47.52;101768.78;5054517;28;20060;-61
2021/06/24 02:24:09;;;;;;;7.93;4.00;;;;;;;23.43;46.93;101761.59;5054831;28;20050;-61
2021/06/24 02:26:35;;;;;;;9.80;4.07;;;;;;;23.41;47.59;101754.63;5055129;28;20040;-61
2021/06/24 02:29:00;;;;;;;10.00;4.88;;;;;;;23.39;47.22;101760.31;5054495;28;20115;-61
2021/06/24 02:31:27;;;;;;;10.10;4.00;;;;;;;23.37;47.35;101767.78;5054904;28;20037;-61
2021/06/24 02:33:53;;;;;;;5.13;3.17;;;;;;;23.35;46.73;101758.94;5036979;28;20056;-61
2021/06/24 02:36:18;;;;;;;10.50;5.22;;;;;;;23.28;47.39;101749.81;5054571;28;20060;-62
2021/06/24 02:38:43;;;;;;;11.18;4.25;;;;;;;23.31;47.62;101751.31;5054699;28;20086;-61
2021/06/24 02:41:09;;;;;;;4.75;3.63;;;;;;;23.29;46.84;101751.50;5055520;28;20040;-62
2021/06/24 02:43:34;;;;;;;7.97;3.90;;;;;;;23.23;46.85;101744.03;5054240;28;20021;-61
2021/06/24 02:45:59;;;;;;;6.63;4.10;;;;;;;23.20;47.04;101749.88;5052892;28;20033;-61
2021/06/24 02:48:25;;;;;;;7.30;3.80;;;;;;;23.23;46.94;101754.97;5054656;28;20369;-61
2021/06/24 02:50:50;;;;;;;11.38;4.35;;;;;;;23.19;46.85;101748.22;5054439;28;20029;-62
2021/06/24 02:53:16;;;;;;;10.32;4.72;;;;;;;23.19;47.83;101753.69;5054681;28;20102;-61
2021/06/24 02:55:43;;;;;;;8.32;4.03;;;;;;;23.15;47.75;101750.47;5054509;28;20032;-61
2021/06/24 02:58:08;;;;;;;6.60;4.18;;;;;;;23.12;47.06;101758.19;5054450;28;20035;-62
2021/06/24 03:00:34;;;;;;;6.10;4.20;;;;;;;23.11;47.96;101754.63;5054306;28;20107;-62
2021/06/24 03:02:59;;;;;;;12.25;4.05;;;;;;;23.07;47.77;101752.44;5054178;28;20078;-62
2021/06/24 03:05:25;;;;;;;7.32;3.85;;;;;;;23.07;46.99;101766.09;5054025;28;20039;-62
2021/06/24 03:07:50;;;;;;;7.15;4.20;;;;;;;23.04;47.88;101763.75;5053325;28;20116;-61
2021/06/24 03:10:18;;;;;;;11.80;4.70;;;;;;;23.02;48.07;101758.47;5036194;28;20032;-61
2021/06/24 03:12:44;;;;;;;8.48;4.32;;;;;;;23.00;46.99;101751.50;5036003;28;20070;-61
2021/06/24 03:15:10;;;;;;;7.57;4.30;;;;;;;22.98;47.87;101756.28;5053469;28;20029;-61
2021/06/24 03:17:35;;;;;;;6.90;4.00;;;;;;;22.96;47.58;101755.63;5053144;28;20373;-62
2021/06/24 03:20:04;;;;;;;8.77;4.60;;;;;;;22.95;48.06;101751.19;5052987;28;20111;-61
2021/06/24 03:22:29;;;;;;;13.35;4.80;;;;;;;22.91;47.44;101752.63;5053245;28;20045;-61
2021/06/24 03:24:54;;;;;;;13.88;4.25;;;;;;;22.93;47.19;101761.47;5035611;28;20029;-62
2021/06/24 03:27:20;;;;;;;11.75;4.30;;;;;;;22.90;47.88;101759.13;5053860;28;20064;-61
2021/06/24 03:29:45;;;;;;;8.18;4.13;;;;;;;22.88;47.14;101756.59;5053734;28;20505;-62
2021/06/24 03:32:11;;;;;;;6.63;4.18;;;;;;;22.87;48.09;101752.13;5054170;28;20029;-61
2021/06/24 03:34:36;;;;;;;6.22;4.43;;;;;;;22.83;47.89;101758.19;5053925;28;20083;-62
2021/06/24 03:37:02;;;;;;;7.80;4.38;;;;;;;22.80;47.99;101759.41;5053420;28;20116;-61
2021/06/24 03:39:27;;;;;;;11.38;4.53;;;;;;;22.75;48.17;101756.38;5053725;28;20036;-61
2021/06/24 03:41:52;;;;;;;6.90;3.92;;;;;;;22.77;48.24;101756.19;5053404;28;20390;-61
2021/06/24 03:44:18;;;;;;;7.60;4.10;;;;;;;22.74;47.06;101754.69;5053441;28;20166;-61
2021/06/24 03:46:43;;;;;;;7.63;4.20;;;;;;;22.70;48.07;101744.31;5035913;28;20025;-61
2021/06/24 03:49:09;;;;;;;7.30;3.75;;;;;;;22.74;48.14;101751.09;5035711;28;20457;-62
2021/06/24 03:51:35;;;;;;;8.75;4.05;;;;;;;22.73;48.14;101752.97;5053295;28;20029;-62
2021/06/24 03:54:00;;;;;;;7.03;4.40;;;;;;;22.72;47.76;101745.81;5053955;28;20036;-61
2021/06/24 03:56:26;;;;;;;7.45;4.18;;;;;;;22.67;48.22;101736.50;5053584;28;20033;-62
2021/06/24 03:58:51;;;;;;;10.68;4.45;;;;;;;22.69;48.31;101739.88;5035494;28;20025;-62
2021/06/24 04:01:16;;;;;;;8.75;4.55;;;;;;;22.71;48.53;101748.72;5053608;28;20484;-61
2021/06/24 04:03:42;;;;;;;12.65;5.20;;;;;;;22.72;47.49;101750.44;5053674;28;20028;-61
2021/06/24 04:06:07;;;;;;;8.27;4.50;;;;;;;22.72;48.25;101751.28;5053195;28;20043;-61
2021/06/24 04:08:33;;;;;;;9.45;4.18;;;;;;;22.72;47.50;101755.91;5053332;28;20424;-61
2021/06/24 04:10:59;;;;;;;9.93;4.50;;;;;;;22.70;48.17;101747.06;5053622;28;20025;-61
2021/06/24 04:13:24;;;;;;;14.82;6.47;;;;;;;22.76;47.55;101757.22;5053866;28;20071;-62
2021/06/24 04:15:50;;;;;;;8.05;4.60;;;;;;;22.76;47.85;101746.28;5052926;28;20040;-61
2021/06/24 04:18:15;;;;;;;14.15;4.97;;;;;;;22.76;47.88;101740.81;5035723;28;20036;-62
2021/06/24 04:20:41;;;;;;;11.88;4.53;;;;;;;22.81;47.63;101743.88;5032972;28;20558;-61
2021/06/24 04:23:06;;;;;;;10.15;5.82;;;;;;;22.84;47.81;101743.47;5015910;28;20045;-61
2021/06/24 04:25:33;;;;;;;10.77;5.88;;;;;;;22.92;47.25;101748.88;5033403;28;20083;-61
2021/06/24 04:28:00;;;;;;;11.50;5.00;;;;;;;22.94;47.31;101741.31;5035785;28;20470;-62
2021/06/24 04:30:27;;;;;;;8.52;4.68;;;;;;;22.93;47.60;101745.06;5037126;28;20029;-61
2021/06/24 04:32:52;;;;;;;10.68;4.38;;;;;;;22.98;47.49;101748.94;5036113;28;20021;-61
2021/06/24 04:35:18;;;;;;;8.75;5.18;;;;;;;23.00;48.28;101737.84;5037246;28;20021;-61
2021/06/24 04:37:44;;;;;;;7.65;4.50;;;;;;;23.02;48.02;101741.22;5037274;28;20029;-61
2021/06/24 04:40:10;;;;;;;7.20;4.85;;;;;;;23.05;48.05;101741.72;5035534;28;20382;-61
2021/06/24 04:42:36;;;;;;;10.13;4.65;;;;;;;23.15;48.32;101746.88;5035837;28;20026;-61
2021/06/24 04:45:02;;;;;;;7.72;4.55;;;;;;;23.20;47.55;101742.53;5037078;28;20421;-62
2021/06/24 04:47:28;;;;;;;12.15;4.80;;;;;;;23.28;47.08;101749.81;5035212;28;20033;-61
2021/06/24 04:49:53;;;;;;;11.25;5.07;;;;;;;23.35;47.29;101753.47;5036815;28;20036;-61
2021/06/24 04:52:18;;;;;;;15.40;5.80;;;;;;;23.42;47.20;101743.47;5035534;28;20036;-62
2021/06/24 04:54:44;;;;;;;7.90;5.43;;;;;;;23.50;47.78;101740.66;5036881;28;20030;-61
2021/06/24 04:57:09;;;;;;;12.57;5.10;;;;;;;23.57;47.88;101744.31;5035231;28;20403;-61
2021/06/24 04:59:35;;;;;;;13.77;5.45;;;;;;;23.66;47.27;101740.44;5036517;28;20033;-62
2021/06/24 05:02:00;;;;;;;9.02;4.53;;;;;;;23.68;47.86;101732.88;5036819;28;20079;-61
2021/06/24 05:04:26;;;;;;;7.82;4.43;;;;;;;23.73;47.27;101733.16;5036903;28;20402;-62
2021/06/24 05:06:53;;;;;;;9.57;4.90;;;;;;;23.79;47.69;101731.53;5036374;28;20469;-62
2021/06/24 05:09:25;;;;;;;7.25;4.90;;;;;;;23.88;47.08;101737.72;5036346;28;20056;-61
2021/06/24 05:11:51;;;;;;;13.07;3.87;;;;;;;23.94;46.88;101743.28;5035221;28;20057;-61
2021/06/24 05:14:16;;;;;;;9.65;4.93;;;;;;;23.99;47.44;101738.06;5036226;28;20493;-62
2021/06/24 05:16:41;;;;;;;8.25;4.82;;;;;;;24.01;46.88;101733.25;5035945;28;20029;-61
2021/06/24 05:19:08;;;;;;;7.00;4.43;;;;;;;24.08;46.90;101733.31;5036551;28;20026;-62
2021/06/24 05:21:33;;;;;;;16.20;4.53;;;;;;;24.18;46.67;101736.59;5034616;28;20406;-62
2021/06/24 05:23:59;;;;;;;10.25;4.65;;;;;;;24.29;47.11;101741.53;5034843;28;20029;-62
2021/06/24 05:26:24;;;;;;;8.88;4.20;;;;;;;24.39;46.81;101733.88;5051418;28;20105;-62
2021/06/24 05:28:49;;;;;;;8.18;4.80;;;;;;;24.51;46.40;101735.00;5035710;28;20041;-62
2021/06/24 05:31:15;;;;;;;7.63;4.75;;;;;;;24.63;46.58;101722.47;5036168;28;20116;-62
2021/06/24 05:33:40;;;;;;;13.27;5.75;;;;;;;24.81;45.90;101725.59;5035534;28;20517;-62
2021/06/24 05:36:06;;;;;;;8.60;4.50;;;;;;;24.92;45.91;101715.97;5035819;28;20025;-62
2021/06/24 05:38:31;;;;;;;7.80;5.15;;;;;;;24.99;45.78;101721.47;5035104;28;20030;-62
2021/06/24 05:40:57;;;;;;;10.00;4.57;;;;;;;25.12;45.56;101716.06;5035475;28;20029;-59
2021/06/24 05:43:22;;;;;;;7.18;4.57;;;;;;;25.24;45.36;101719.91;5035941;28;20037;-59
2021/06/24 05:45:48;;;;;;;7.68;4.95;;;;;;;25.37;45.14;101725.50;5034013;28;20117;-59
2021/06/24 05:48:13;;;;;;;11.23;5.03;;;;;;;25.47;45.32;101723.22;5035538;28;20374;-62
2021/06/24 05:50:40;;;;;;;6.35;4.50;;;;;;;25.54;44.96;101721.38;5035647;28;20040;-59
2021/06/24 05:53:05;;;;;;;7.95;4.75;;;;;;;25.62;44.75;101731.31;5035139;28;20021;-59
2021/06/24 05:55:49;;;;;;;8.38;4.93;;;;;;;25.66;44.80;101721.59;5034108;28;20030;-59
2021/06/24 05:58:22;;;;;;;7.88;4.10;;;;;;;25.71;44.44;101721.84;5035747;28;20030;-59
2021/06/24 06:00:50;;;;;;;13.10;5.40;;;;;;;25.76;44.20;101717.44;5050699;28;20069;-60
2021/06/24 06:03:16;;;;;;;9.57;4.93;;;;;;;25.79;44.79;101716.19;5035278;28;20029;-59
2021/06/24 06:05:41;;;;;;;11.05;5.47;;;;;;;25.84;44.45;101720.00;5033768;28;20025;-59
2021/06/24 06:08:07;;;;;;;10.00;5.18;;;;;;;25.85;44.69;101713.44;5034441;28;20025;-59
2021/06/24 06:10:36;;;;;;;9.93;5.40;;;;;;;25.73;44.45;101704.13;5035272;28;20025;-60
2021/06/24 06:13:04;;;;;;;8.70;5.50;;;;;;;25.86;44.10;101717.88;5033924;28;20352;-60
2021/06/24 06:15:29;;;;;;;7.07;5.53;;;;;;;25.81;44.75;101720.41;5035026;28;20028;-59
2021/06/24 06:17:54;;;;;;;8.70;5.32;;;;;;;25.85;44.23;101718.91;5034624;28;20029;-59
2021/06/24 06:20:20;;;;;;;10.25;5.60;;;;;;;25.94;44.06;101711.34;5034894;28;20113;-59
2021/06/24 06:22:46;;;;;;;19.27;6.22;;;;;;;25.95;44.01;101722.13;5051093;28;20079;-59
2021/06/24 06:25:13;;;;;;;11.05;5.72;;;;;;;25.95;44.00;101719.38;5053247;28;20065;-59
2021/06/24 06:27:39;;;;;;;11.20;6.10;;;;;;;25.96;44.38;101721.06;5054990;28;20032;-59
2021/06/24 06:30:05;;;;;;;17.50;6.57;;;;;;;25.98;44.09;101718.97;5055136;28;20032;-60
2021/06/24 06:32:30;;;;;;;12.90;6.85;;;;;;;25.97;44.27;101722.75;5036591;28;20052;-59
2021/06/24 06:34:55;;;;;;;14.45;6.13;;;;;;;25.83;44.15;101729.28;5036653;28;20028;-59
2021/06/24 06:37:21;;;;;;;18.23;6.18;;;;;;;25.77;43.99;101732.84;5037046;28;20043;-59
2021/06/24 06:39:46;;;;;;;8.98;6.00;;;;;;;25.70;44.55;101731.13;5054512;28;20074;-60
2021/06/24 06:42:12;;;;;;;15.60;7.45;;;;;;;25.64;44.18;101734.69;5054231;28;20036;-60
2021/06/24 06:44:37;;;;;;;12.90;6.93;;;;;;;25.59;44.54;101734.47;5054376;28;20484;-60
2021/06/24 06:47:03;;;;;;;15.80;8.30;;;;;;;25.52;44.34;101725.38;5054422;28;20020;-59
2021/06/24 06:49:28;;;;;;;19.65;9.00;;;;;;;25.49;44.41;101712.88;5053796;28;20466;-59
2021/06/24 06:51:53;;;;;;;16.95;8.77;;;;;;;25.50;44.40;101722.81;5035403;28;20037;-62
2021/06/24 06:54:19;;;;;;;15.80;7.95;;;;;;;25.55;44.13;101728.53;5054112;28;20029;-59
2021/06/24 06:56:47;;;;;;;16.38;9.63;;;;;;;25.57;44.37;101718.22;5054517;28;20055;-59
2021/06/24 06:59:13;;;;;;;17.90;7.93;;;;;;;25.55;43.89;101725.78;5054397;28;20053;-59
2021/06/24 07:01:39;;;;;;;14.88;8.82;;;;;;;25.48;44.39;101715.84;5052663;28;20036;-59
2021/06/24 07:04:05;;;;;;;13.90;8.68;;;;;;;25.51;44.39;101724.53;5054414;28;20071;-59
2021/06/24 07:06:31;;;;;;;16.77;8.15;;;;;;;25.55;44.12;101725.78;5052836;28;20494;-59
2021/06/24 07:08:57;;;;;;;17.95;8.40;;;;;;;25.55;44.28;101717.56;5054047;28;20180;-59
2021/06/24 07:11:23;;;;;;;16.35;9.98;;;;;;;25.57;44.58;101729.22;5053997;28;20083;-59
2021/06/24 07:13:48;;;;;;;26.58;9.02;;;;;;;25.60;44.57;101723.28;5053859;28;20025;-60
2021/06/24 07:16:14;;;;;;;20.52;10.65;;;;;;;25.73;44.32;101726.09;5053978;28;20025;-59
2021/06/24 07:18:39;;;;;;;24.48;12.32;;;;;;;25.80;44.30;101726.94;5053613;28;20124;-60
2021/06/24 07:21:05;;;;;;;24.50;14.05;;;;;;;25.81;44.01;101720.41;5053460;28;20394;-59
2021/06/24 07:23:30;;;;;;;22.23;13.80;;;;;;;25.82;44.28;101724.00;5053935;28;20024;-60
2021/06/24 07:25:56;;;;;;;26.65;14.15;;;;;;;25.81;43.90;101723.16;5053757;28;20127;-60
2021/06/24 07:28:21;;;;;;;23.88;14.35;;;;;;;25.85;44.02;101726.34;5035955;28;20025;-59
2021/06/24 07:30:49;;;;;;;25.50;13.10;;;;;;;25.90;43.98;101727.41;5054023;28;20025;-59
2021/06/24 07:33:15;;;;;;;25.95;13.07;;;;;;;25.91;44.19;101734.56;5053640;28;20036;-59
2021/06/24 07:35:41;;;;;;;22.65;13.75;;;;;;;25.91;44.21;101729.06;5036096;28;20033;-60
2021/06/24 07:38:06;;;;;;;28.23;14.65;;;;;;;25.92;44.40;101724.44;5053943;28;20116;-59
2021/06/24 07:40:31;;;;;;;26.73;14.35;;;;;;;26.02;44.00;101722.97;5053895;28;20029;-59
2021/06/24 07:42:59;;;;;;;33.30;13.82;;;;;;;26.15;44.05;101718.59;5053861;28;20021;-60
2021/06/24 07:45:24;;;;;;;21.85;13.48;;;;;;;26.21;43.93;101709.53;5036013;28;20385;-59
2021/06/24 07:47:50;;;;;;;25.65;14.95;;;;;;;26.34;43.91;101717.75;5053433;28;20033;-59
2021/06/24 07:50:15;;;;;;;26.98;13.50;;;;;;;26.40;43.75;101711.44;5053564;28;20028;-59
2021/06/24 07:52:40;;;;;;;23.80;12.80;;;;;;;26.45;43.49;101704.25;5035381;28;20388;-59
2021/06/24 07:55:07;;;;;;;23.20;13.25;;;;;;;26.52;43.93;101716.06;5053293;28;20029;-60
2021/06/24 07:57:33;;;;;;;24.17;13.45;;;;;;;26.58;43.63;101708.88;5053210;28;20033;-59
2021/06/24 07:59:58;;;;;;;29.38;14.18;;;;;;;26.69;43.67;101712.91;5035870;28;20036;-59
2021/06/24 08:02:23;;;;;;;25.20;13.82;;;;;;;26.86;43.54;101717.75;5055283;28;20071;-59
2021/06/24 08:04:49;;;;;;;23.20;14.07;;;;;;;26.86;43.11;101709.50;5057369;28;20058;-59
2021/06/24 08:07:14;;;;;;;22.42;14.02;;;;;;;26.87;43.06;101711.19;5057339;28;20037;-60
2021/06/24 08:09:40;;;;;;;24.63;13.80;;;;;;;26.93;42.90;101710.34;5039273;28;20082;-59
2021/06/24 08:12:05;;;;;;;27.42;13.63;;;;;;;27.01;42.85;101718.38;5057560;28;20025;-59
2021/06/24 08:14:31;;;;;;;20.38;12.60;;;;;;;27.17;42.97;101712.38;5039234;28;20033;-59
2021/06/24 08:16:56;;;;;;;23.80;13.77;;;;;;;27.28;42.26;101708.13;5022618;28;20033;-59
2021/06/24 08:19:22;;;;;;;24.27;12.55;;;;;;;27.36;42.52;101693.28;5057489;28;20029;-59
2021/06/24 08:21:47;;;;;;;25.13;13.90;;;;;;;27.52;42.78;101703.81;5054595;28;20049;-59
2021/06/24 08:24:13;;;;;;;24.33;15.13;;;;;;;27.88;41.87;101684.75;5057086;28;20036;-59
2021/06/24 08:26:38;;;;;;;24.30;13.73;;;;;;;28.03;42.20;101696.34;5056674;28;20118;-59
2021/06/24 08:29:04;;;;;;;24.20;15.48;;;;;;;28.24;41.45;101706.16;5039185;28;20028;-59
2021/06/24 08:31:29;;;;;;;24.45;15.55;;;;;;;28.64;41.60;101698.44;5056663;28;20103;-59
2021/06/24 08:33:58;;;;;;;28.15;17.35;;;;;;;29.11;40.80;101703.22;5056628;28;20029;-59
2021/06/24 08:36:23;;;;;;;29.63;16.33;;;;;;;29.28;40.74;101693.28;5056567;28;20036;-60
2021/06/24 08:38:49;;;;;;;27.67;16.40;;;;;;;29.23;40.72;101695.88;5056861;28;20453;-59
2021/06/24 08:41:15;;;;;;;20.02;14.00;;;;;;;29.10;41.61;101704.28;5056790;28;20079;-59
2021/06/24 08:43:41;;;;;;;21.38;13.65;;;;;;;28.93;41.08;101705.09;5056447;28;20036;-60
2021/06/24 08:46:06;;;;;;;23.15;14.00;;;;;;;28.73;40.97;101710.81;5056632;28;20440;-59
2021/06/24 08:48:34;;;;;;;20.98;14.25;;;;;;;28.57;41.21;101708.63;5056262;28;20033;-60
2021/06/24 08:51:00;;;;;;;20.48;13.38;;;;;;;28.43;41.48;101715.31;5056266;28;20116;-59
2021/06/24 08:53:25;;;;;;;23.88;12.32;;;;;;;28.28;41.21;101708.22;5038843;28;20064;-59
2021/06/24 08:55:53;;;;;;;20.63;11.68;;;;;;;28.14;41.96;101709.38;5038662;28;20100;-59
2021/06/24 08:58:19;;;;;;;18.83;13.13;;;;;;;28.01;41.46;101717.72;5056331;28;20390;-59
2021/06/24 09:00:45;;;;;;;18.20;12.77;;;;;;;27.94;41.52;101719.69;5056234;28;20033;-59
2021/06/24 09:03:18;;;;;;;18.95;11.82;;;;;;;27.86;41.79;101721.88;5034219;28;20138;-60
2021/06/24 09:05:48;;;;;;;16.67;12.15;;;;;;;27.82;42.20;101723.34;5055605;28;20107;-60
2021/06/24 09:08:22;;;;;;;19.00;12.65;;;;;;;27.75;41.55;101720.63;5056261;28;20462;-59
2021/06/24 09:11:07;;;;;;;19.10;13.18;;;;;;;27.67;42.31;101724.50;5056025;28;20496;-59
2021/06/24 09:13:32;;;;;;;21.33;12.07;;;;;;;27.59;42.07;101727.50;5054826;28;20089;-59
2021/06/24 09:16:04;;;;;;;17.63;12.27;;;;;;;27.60;41.49;101726.44;5038290;28;20092;-59
2021/06/24 09:18:29;;;;;;;24.58;12.20;;;;;;;27.74;41.62;101727.22;5038208;28;20052;-60
2021/06/24 09:20:54;;;;;;;21.02;11.55;;;;;;;27.97;41.27;101721.16;5056030;28;20056;-60
2021/06/24 09:23:23;;;;;;;18.83;12.23;;;;;;;28.05;41.28;101713.50;5055456;28;20056;-59
2021/06/24 09:26:07;;;;;;;22.08;12.88;;;;;;;28.13;41.25;101710.47;5054717;28;20470;-59
2021/06/24 09:28:37;;;;;;;17.38;12.05;;;;;;;28.11;41.24;101709.00;5054483;28;20040;-60
2021/06/24 09:31:03;;;;;;;20.83;11.70;;;;;;;28.06;40.98;101712.41;5038282;28;20056;-60
2021/06/24 09:33:38;;;;;;;16.00;10.70;;;;;;;27.97;41.95;101715.66;5055793;28;20037;-60
2021/06/24 09:36:03;;;;;;;16.77;10.52;;;;;;;27.98;41.72;101715.41;5055759;28;20021;-60
2021/06/24 09:38:29;;;;;;;15.10;10.32;;;;;;;28.03;41.24;101714.81;5055503;28;20536;-59
2021/06/24 09:40:56;;;;;;;17.83;10.30;;;;;;;28.05;41.53;101704.38;5055899;28;20029;-60
2021/06/24 09:43:24;;;;;;;14.18;10.05;;;;;;;28.11;41.46;101706.25;5055633;28;20053;-60
2021/06/24 09:46:20;;;;;;;15.75;10.35;;;;;;;28.21;41.46;101710.19;5055481;28;20036;-60
2021/06/24 09:48:47;;;;;;;13.98;8.82;;;;;;;28.22;41.36;101709.16;5050154;28;20071;-59
2021/06/24 09:51:16;;;;;;;18.13;10.32;;;;;;;28.13;42.06;101716.00;5055153;28;20077;-60
2021/06/24 09:53:57;;;;;;;15.75;10.00;;;;;;;28.04;41.33;101710.97;5055420;28;20547;-60
2021/06/24 09:56:56;;;;;;;20.85;10.23;;;;;;;27.90;42.05;101693.66;5055017;28;20021;-59
2021/06/24 09:59:31;;;;;;;12.95;9.23;;;;;;;27.85;42.07;101706.38;5053838;28;20401;-60
2021/06/24 10:01:56;;;;;;;12.15;8.48;;;;;;;27.78;42.52;101711.13;5054986;28;20029;-60
2021/06/24 10:04:23;;;;;;;11.57;7.85;;;;;;;27.70;42.63;101712.19;5037028;28;20044;-60
2021/06/24 10:06:51;;;;;;;14.98;7.57;;;;;;;27.62;41.67;101717.94;5037847;28;20033;-60
2021/06/24 10:09:17;;;;;;;10.38;7.15;;;;;;;27.54;42.00;101713.56;5055393;28;20021;-59
2021/06/24 10:11:43;;;;;;;10.73;6.95;;;;;;;27.48;42.69;101710.81;5055027;28;20028;-59
2021/06/24 10:14:09;;;;;;;19.65;6.72;;;;;;;27.44;41.87;101709.59;5055083;28;20029;-60
2021/06/24 10:16:34;;;;;;;11.88;6.57;;;;;;;27.42;42.05;101711.69;5054997;28;20576;-59
2021/06/24 10:19:01;;;;;;;12.60;6.95;;;;;;;27.40;41.89;101705.53;5037150;28;20048;-58
2021/06/24 10:21:27;;;;;;;16.30;6.25;;;;;;;27.41;41.99;101715.53;5054671;28;20080;-59
2021/06/24 10:24:09;;;;;;;9.63;6.25;;;;;;;27.52;42.05;101709.34;5055036;28;20032;-58
2021/06/24 10:26:38;;;;;;;12.00;6.67;;;;;;;27.73;41.17;101714.50;5054357;28;20107;-59
2021/06/24 10:29:18;;;;;;;9.73;5.47;;;;;;;27.91;41.04;101714.63;5036733;28;20099;-59
2021/06/24 10:31:48;;;;;;;10.43;5.50;;;;;;;27.98;41.86;101701.63;5036607;28;20025;-59
2021/06/24 10:34:14;;;;;;;13.05;5.75;;;;;;;28.00;40.76;101698.69;5036746;28;20025;-60
2021/06/24 10:36:40;;;;;;;9.00;5.97;;;;;;;28.01;41.64;101701.19;5036391;28;20090;-59
2021/06/24 10:39:06;;;;;;;10.18;5.80;;;;;;;27.97;41.52;101707.38;5036351;28;20029;-59
2021/06/24 10:42:11;;;;;;;12.23;5.57;;;;;;;28.03;40.73;101704.59;5054498;28;20051;-59
2021/06/24 10:44:47;;;;;;;11.60;5.72;;;;;;;28.19;41.29;101704.09;4987642;28;20040;-59
2021/06/24 10:47:14;;;;;;;12.88;5.90;;;;;;;28.36;40.63;101703.53;5036368;28;20549;-58
2021/06/24 10:49:39;;;;;;;8.35;6.00;;;;;;;28.52;41.22;101700.19;5036456;28;20079;-58
2021/06/24 10:52:26;;;;;;;7.30;5.45;;;;;;;28.81;39.85;101691.25;5054089;28;20029;-59
2021/06/24 10:54:55;;;;;;;8.68;5.72;;;;;;;29.05;40.32;101686.72;5054549;28;20025;-59
2021/06/24 10:57:40;;;;;;;7.20;5.38;;;;;;;29.10;40.45;101695.16;5054557;28;20106;-58
2021/06/24 11:00:31;;;;;;;9.20;5.95;;;;;;;28.99;40.81;101696.78;5053930;28;20032;-58
2021/06/24 11:02:58;;;;;;;10.25;5.55;;;;;;;28.92;40.67;101689.66;5036057;28;20463;-59
2021/06/24 11:05:24;;;;;;;12.82;6.25;;;;;;;29.01;40.66;101702.91;5036299;28;20045;-59
2021/06/24 11:07:55;;;;;;;12.05;5.97;;;;;;;29.01;40.22;101691.03;5052994;28;20108;-58
2021/06/24 11:10:26;;;;;;;8.98;6.18;;;;;;;29.10;40.10;101696.00;5053742;28;20104;-59
2021/06/24 11:12:54;;;;;;;7.68;5.30;;;;;;;29.15;39.54;101696.16;5052445;28;20029;-58
2021/06/24 11:15:45;;;;;;;10.50;6.20;;;;;;;29.20;40.31;101695.47;5053942;28;20067;-59
2021/06/24 11:18:38;;;;;;;12.50;5.85;;;;;;;29.25;40.29;101699.28;5035814;28;20029;-59